sensor_id;sensor_type;location;lat;lon;timestamp;temperature;humidity
10891;DHT22;5498;50.928;11.598;2023-03-01T00:02:28;-1.30;88.80
10891;DHT22;5498;50.928;11.598;2023-03-01T00:05:30;-1.30;88.70
10891;DHT22;5498;50.928;11.598;2023-03-01T00:08:32;-1.30;88.70
10891;DHT22;5498;50.928;11.598;2023-03-01T00:11:35;-1.30;88.70
10891;DHT22;5498;50.928;11.598;2023-03-01T00:14:38;-1.50;88.60
10891;DHT22;5498;50.928;11.598;2023-03-01T00:17:40;-1.50;89.60
10891;DHT22;5498;50.928;11.598;2023-03-01T00:20:41;-1.20;90.30
10891;DHT22;5498;50.928;11.598;2023-03-01T00:23:51;-1.50;90.10
10891;DHT22;5498;50.928;11.598;2023-03-01T00:26:54;-0.90;90.10
10891;DHT22;5498;50.928;11.598;2023-03-01T00:29:58;-1.40;89.50
10891;DHT22;5498;50.928;11.598;2023-03-01T00:33:00;-1.50;88.60
10891;DHT22;5498;50.928;11.598;2023-03-01T00:36:03;-1.40;89.00
10891;DHT22;5498;50.928;11.598;2023-03-01T00:39:09;-1.80;90.20
10891;DHT22;5498;50.928;11.598;2023-03-01T00:42:12;-1.30;90.40
10891;DHT22;5498;50.928;11.598;2023-03-01T00:45:16;-1.60;90.10
10891;DHT22;5498;50.928;11.598;2023-03-01T00:48:18;-1.60;90.10
10891;DHT22;5498;50.928;11.598;2023-03-01T00:51:21;-1.70;89.70
10891;DHT22;5498;50.928;11.598;2023-03-01T00:54:24;-1.90;90.30
10891;DHT22;5498;50.928;11.598;2023-03-01T00:57:26;-2.00;90.70
10891;DHT22;5498;50.928;11.598;2023-03-01T01:00:29;-1.90;90.80
10891;DHT22;5498;50.928;11.598;2023-03-01T01:03:31;-1.80;90.80
10891;DHT22;5498;50.928;11.598;2023-03-01T01:06:35;-1.60;90.50
10891;DHT22;5498;50.928;11.598;2023-03-01T01:09:38;-1.60;90.40
10891;DHT22;5498;50.928;11.598;2023-03-01T01:12:40;-1.60;90.00
10891;DHT22;5498;50.928;11.598;2023-03-01T01:15:44;-1.60;90.20
10891;DHT22;5498;50.928;11.598;2023-03-01T01:18:47;-1.60;90.10
10891;DHT22;5498;50.928;11.598;2023-03-01T01:21:49;-2.00;90.40
10891;DHT22;5498;50.928;11.598;2023-03-01T01:24:51;-2.00;91.10
10891;DHT22;5498;50.928;11.598;2023-03-01T01:27:53;-2.20;91.10
10891;DHT22;5498;50.928;11.598;2023-03-01T01:30:56;-2.10;91.40
10891;DHT22;5498;50.928;11.598;2023-03-01T01:33:59;-2.00;91.20
10891;DHT22;5498;50.928;11.598;2023-03-01T01:37:01;-2.00;91.00
10891;DHT22;5498;50.928;11.598;2023-03-01T01:40:05;-1.90;90.90
10891;DHT22;5498;50.928;11.598;2023-03-01T01:43:11;-1.80;90.70
10891;DHT22;5498;50.928;11.598;2023-03-01T01:46:25;-1.90;90.60
10891;DHT22;5498;50.928;11.598;2023-03-01T01:49:33;-1.90;90.70
10891;DHT22;5498;50.928;11.598;2023-03-01T01:52:38;-1.80;90.60
10891;DHT22;5498;50.928;11.598;2023-03-01T01:55:42;-1.90;90.40
10891;DHT22;5498;50.928;11.598;2023-03-01T01:58:48;-1.80;90.40
10891;DHT22;5498;50.928;11.598;2023-03-01T02:01:52;-1.80;90.30
10891;DHT22;5498;50.928;11.598;2023-03-01T02:05:03;-1.80;90.20
10891;DHT22;5498;50.928;11.598;2023-03-01T02:08:13;-1.80;90.20
10891;DHT22;5498;50.928;11.598;2023-03-01T02:11:17;-1.90;90.00
10891;DHT22;5498;50.928;11.598;2023-03-01T02:14:20;-1.90;90.20
10891;DHT22;5498;50.928;11.598;2023-03-01T02:17:23;-2.00;90.20
10891;DHT22;5498;50.928;11.598;2023-03-01T02:20:32;-2.00;90.30
10891;DHT22;5498;50.928;11.598;2023-03-01T02:23:36;-2.00;90.30
10891;DHT22;5498;50.928;11.598;2023-03-01T02:26:43;-2.40;90.30
10891;DHT22;5498;50.928;11.598;2023-03-01T02:29:50;-2.60;91.10
10891;DHT22;5498;50.928;11.598;2023-03-01T02:32:54;-2.50;91.30
10891;DHT22;5498;50.928;11.598;2023-03-01T02:36:06;-2.50;91.10
10891;DHT22;5498;50.928;11.598;2023-03-01T02:39:13;-2.70;91.20
10891;DHT22;5498;50.928;11.598;2023-03-01T02:42:22;-2.60;91.50
10891;DHT22;5498;50.928;11.598;2023-03-01T02:45:29;-2.70;91.20
10891;DHT22;5498;50.928;11.598;2023-03-01T02:48:40;-2.70;91.50
10891;DHT22;5498;50.928;11.598;2023-03-01T02:51:51;-2.90;91.50
10891;DHT22;5498;50.928;11.598;2023-03-01T02:55:00;-3.10;91.70
10891;DHT22;5498;50.928;11.598;2023-03-01T02:58:03;-2.90;92.00
10891;DHT22;5498;50.928;11.598;2023-03-01T03:01:06;-2.80;91.60
10891;DHT22;5498;50.928;11.598;2023-03-01T03:04:12;-2.70;91.30
10891;DHT22;5498;50.928;11.598;2023-03-01T03:07:17;-2.60;91.20
10891;DHT22;5498;50.928;11.598;2023-03-01T03:10:23;-2.20;91.10
10891;DHT22;5498;50.928;11.598;2023-03-01T03:13:25;-2.60;90.70
10891;DHT22;5498;50.928;11.598;2023-03-01T03:16:30;-2.30;90.90
10891;DHT22;5498;50.928;11.598;2023-03-01T03:19:32;-2.80;91.00
10891;DHT22;5498;50.928;11.598;2023-03-01T03:22:34;-2.80;91.10
10891;DHT22;5498;50.928;11.598;2023-03-01T03:25:36;-2.80;91.20
10891;DHT22;5498;50.928;11.598;2023-03-01T03:28:38;-2.90;91.20
10891;DHT22;5498;50.928;11.598;2023-03-01T03:31:41;-2.50;91.40
10891;DHT22;5498;50.928;11.598;2023-03-01T03:34:43;-3.20;91.30
10891;DHT22;5498;50.928;11.598;2023-03-01T03:37:45;-3.10;91.80
10891;DHT22;5498;50.928;11.598;2023-03-01T03:41:08;-3.20;91.70
10891;DHT22;5498;50.928;11.598;2023-03-01T03:44:09;-3.10;91.90
10891;DHT22;5498;50.928;11.598;2023-03-01T03:47:13;-3.00;91.60
10891;DHT22;5498;50.928;11.598;2023-03-01T03:50:17;-3.00;91.50
10891;DHT22;5498;50.928;11.598;2023-03-01T03:53:20;-2.90;91.50
10891;DHT22;5498;50.928;11.598;2023-03-01T03:56:22;-2.80;91.30
10891;DHT22;5498;50.928;11.598;2023-03-01T03:59:26;-2.80;91.00
10891;DHT22;5498;50.928;11.598;2023-03-01T04:02:30;-2.80;90.90
10891;DHT22;5498;50.928;11.598;2023-03-01T04:05:32;-2.80;90.70
10891;DHT22;5498;50.928;11.598;2023-03-01T04:08:34;-2.80;90.80
10891;DHT22;5498;50.928;11.598;2023-03-01T04:11:36;-2.70;90.70
10891;DHT22;5498;50.928;11.598;2023-03-01T04:14:39;-2.70;90.70
10891;DHT22;5498;50.928;11.598;2023-03-01T04:17:43;-2.70;90.70
10891;DHT22;5498;50.928;11.598;2023-03-01T04:20:46;-2.80;90.60
10891;DHT22;5498;50.928;11.598;2023-03-01T04:23:49;-2.70;90.60
10891;DHT22;5498;50.928;11.598;2023-03-01T04:26:52;-2.80;90.50
10891;DHT22;5498;50.928;11.598;2023-03-01T04:29:54;-2.80;90.40
10891;DHT22;5498;50.928;11.598;2023-03-01T04:32:57;-2.80;90.40
10891;DHT22;5498;50.928;11.598;2023-03-01T04:35:59;-2.80;90.40
10891;DHT22;5498;50.928;11.598;2023-03-01T04:39:03;-2.80;90.40
10891;DHT22;5498;50.928;11.598;2023-03-01T04:42:12;-2.80;90.40
10891;DHT22;5498;50.928;11.598;2023-03-01T04:45:14;-2.80;90.50
10891;DHT22;5498;50.928;11.598;2023-03-01T04:48:17;-2.80;90.30
10891;DHT22;5498;50.928;11.598;2023-03-01T04:51:19;-2.80;90.20
10891;DHT22;5498;50.928;11.598;2023-03-01T04:54:21;-2.90;90.40
10891;DHT22;5498;50.928;11.598;2023-03-01T04:57:23;-3.00;90.30
10891;DHT22;5498;50.928;11.598;2023-03-01T05:00:25;-3.10;90.60
10891;DHT22;5498;50.928;11.598;2023-03-01T05:03:28;-3.10;91.10
10891;DHT22;5498;50.928;11.598;2023-03-01T05:06:30;-3.10;91.00
10891;DHT22;5498;50.928;11.598;2023-03-01T05:09:32;-3.10;90.90
10891;DHT22;5498;50.928;11.598;2023-03-01T05:12:33;-3.00;90.80
10891;DHT22;5498;50.928;11.598;2023-03-01T05:15:37;-3.10;90.50
10891;DHT22;5498;50.928;11.598;2023-03-01T05:18:41;-3.10;90.60
10891;DHT22;5498;50.928;11.598;2023-03-01T05:21:43;-2.70;90.60
10891;DHT22;5498;50.928;11.598;2023-03-01T05:25:04;-3.10;90.60
10891;DHT22;5498;50.928;11.598;2023-03-01T05:28:11;-3.20;90.90
10891;DHT22;5498;50.928;11.598;2023-03-01T05:31:13;-3.50;91.00
10891;DHT22;5498;50.928;11.598;2023-03-01T05:34:16;-3.40;91.30
10891;DHT22;5498;50.928;11.598;2023-03-01T05:37:18;-3.40;91.10
10891;DHT22;5498;50.928;11.598;2023-03-01T05:40:22;-3.40;91.00
10891;DHT22;5498;50.928;11.598;2023-03-01T05:43:24;-3.60;91.30
10891;DHT22;5498;50.928;11.598;2023-03-01T05:46:27;-3.80;91.40
10891;DHT22;5498;50.928;11.598;2023-03-01T05:49:31;-4.00;91.80
10891;DHT22;5498;50.928;11.598;2023-03-01T05:52:33;-3.80;92.10
10891;DHT22;5498;50.928;11.598;2023-03-01T05:55:36;-3.70;92.00
10891;DHT22;5498;50.928;11.598;2023-03-01T05:58:38;-3.60;92.00
10891;DHT22;5498;50.928;11.598;2023-03-01T06:01:40;-3.10;91.70
10891;DHT22;5498;50.928;11.598;2023-03-01T06:04:43;-3.40;91.50
10891;DHT22;5498;50.928;11.598;2023-03-01T06:07:45;-3.50;91.30
10891;DHT22;5498;50.928;11.598;2023-03-01T06:10:47;-3.40;91.40
10891;DHT22;5498;50.928;11.598;2023-03-01T06:13:49;-3.40;91.40
10891;DHT22;5498;50.928;11.598;2023-03-01T06:16:51;-3.40;91.30
10891;DHT22;5498;50.928;11.598;2023-03-01T06:19:54;-3.50;91.40
10891;DHT22;5498;50.928;11.598;2023-03-01T06:22:56;-3.70;91.40
10891;DHT22;5498;50.928;11.598;2023-03-01T06:25:58;-3.70;91.60
10891;DHT22;5498;50.928;11.598;2023-03-01T06:29:00;-3.60;91.70
10891;DHT22;5498;50.928;11.598;2023-03-01T06:32:02;-4.00;92.00
10891;DHT22;5498;50.928;11.598;2023-03-01T06:35:06;-3.80;92.10
10891;DHT22;5498;50.928;11.598;2023-03-01T06:38:09;-3.70;92.20
10891;DHT22;5498;50.928;11.598;2023-03-01T06:41:11;-3.60;91.90
10891;DHT22;5498;50.928;11.598;2023-03-01T06:44:12;-3.40;91.70
10891;DHT22;5498;50.928;11.598;2023-03-01T06:47:14;-3.30;91.50
10891;DHT22;5498;50.928;11.598;2023-03-01T06:50:18;-3.30;91.30
10891;DHT22;5498;50.928;11.598;2023-03-01T06:53:20;-3.20;91.30
10891;DHT22;5498;50.928;11.598;2023-03-01T06:56:22;-3.20;91.10
10891;DHT22;5498;50.928;11.598;2023-03-01T06:59:24;-3.30;91.10
10891;DHT22;5498;50.928;11.598;2023-03-01T07:02:26;-3.40;91.20
10891;DHT22;5498;50.928;11.598;2023-03-01T07:05:29;-3.20;91.60
10891;DHT22;5498;50.928;11.598;2023-03-01T07:08:32;-2.80;91.70
10891;DHT22;5498;50.928;11.598;2023-03-01T07:11:33;-3.20;91.40
10891;DHT22;5498;50.928;11.598;2023-03-01T07:14:35;-3.60;91.30
10891;DHT22;5498;50.928;11.598;2023-03-01T07:17:37;-3.60;92.00
10891;DHT22;5498;50.928;11.598;2023-03-01T07:20:40;-3.50;91.70
10891;DHT22;5498;50.928;11.598;2023-03-01T07:23:42;-3.30;91.80
10891;DHT22;5498;50.928;11.598;2023-03-01T07:26:48;-2.90;91.60
10891;DHT22;5498;50.928;11.598;2023-03-01T07:29:50;-3.10;91.70
10891;DHT22;5498;50.928;11.598;2023-03-01T07:32:52;-3.00;91.50
10891;DHT22;5498;50.928;11.598;2023-03-01T07:35:59;-3.10;91.90
10891;DHT22;5498;50.928;11.598;2023-03-01T07:39:01;-2.90;92.10
10891;DHT22;5498;50.928;11.598;2023-03-01T07:42:03;-2.70;92.10
10891;DHT22;5498;50.928;11.598;2023-03-01T07:45:06;-2.50;92.10
10891;DHT22;5498;50.928;11.598;2023-03-01T07:48:08;-2.30;92.00
10891;DHT22;5498;50.928;11.598;2023-03-01T07:51:12;-1.70;91.80
10891;DHT22;5498;50.928;11.598;2023-03-01T07:54:14;-1.30;91.40
10891;DHT22;5498;50.928;11.598;2023-03-01T07:57:16;-1.50;90.80
10891;DHT22;5498;50.928;11.598;2023-03-01T08:00:19;-1.20;90.30
10891;DHT22;5498;50.928;11.598;2023-03-01T08:03:21;-1.00;90.40
10891;DHT22;5498;50.928;11.598;2023-03-01T08:06:24;-0.90;89.60
10891;DHT22;5498;50.928;11.598;2023-03-01T08:09:26;-0.60;89.30
10891;DHT22;5498;50.928;11.598;2023-03-01T08:12:28;-0.40;88.80
10891;DHT22;5498;50.928;11.598;2023-03-01T08:15:29;-0.10;88.50
10891;DHT22;5498;50.928;11.598;2023-03-01T08:18:31;0.10;87.30
10891;DHT22;5498;50.928;11.598;2023-03-01T08:21:35;0.40;87.50
10891;DHT22;5498;50.928;11.598;2023-03-01T08:24:37;0.70;87.20
10891;DHT22;5498;50.928;11.598;2023-03-01T08:27:39;1.10;86.70
10891;DHT22;5498;50.928;11.598;2023-03-01T08:30:40;1.20;85.80
10891;DHT22;5498;50.928;11.598;2023-03-01T08:33:42;1.40;85.00
10891;DHT22;5498;50.928;11.598;2023-03-01T08:36:46;1.60;84.80
10891;DHT22;5498;50.928;11.598;2023-03-01T08:39:48;1.90;84.10
10891;DHT22;5498;50.928;11.598;2023-03-01T08:42:50;2.00;83.20
10891;DHT22;5498;50.928;11.598;2023-03-01T08:45:51;2.20;83.40
10891;DHT22;5498;50.928;11.598;2023-03-01T08:48:53;2.50;82.50
10891;DHT22;5498;50.928;11.598;2023-03-01T08:51:57;2.60;81.40
10891;DHT22;5498;50.928;11.598;2023-03-01T08:54:59;2.80;81.10
10891;DHT22;5498;50.928;11.598;2023-03-01T08:58:01;2.80;79.00
10891;DHT22;5498;50.928;11.598;2023-03-01T09:01:07;3.00;78.60
10891;DHT22;5498;50.928;11.598;2023-03-01T09:04:09;3.10;78.90
10891;DHT22;5498;50.928;11.598;2023-03-01T09:07:12;3.30;78.30
10891;DHT22;5498;50.928;11.598;2023-03-01T09:10:15;3.60;77.80
10891;DHT22;5498;50.928;11.598;2023-03-01T09:13:17;3.70;77.10
10891;DHT22;5498;50.928;11.598;2023-03-01T09:16:20;3.70;76.60
10891;DHT22;5498;50.928;11.598;2023-03-01T09:19:23;3.80;76.90
10891;DHT22;5498;50.928;11.598;2023-03-01T09:22:26;3.90;75.60
10891;DHT22;5498;50.928;11.598;2023-03-01T09:25:28;4.10;75.70
10891;DHT22;5498;50.928;11.598;2023-03-01T09:28:30;4.30;75.90
10891;DHT22;5498;50.928;11.598;2023-03-01T09:31:32;4.40;75.10
10891;DHT22;5498;50.928;11.598;2023-03-01T09:34:33;4.20;74.50
10891;DHT22;5498;50.928;11.598;2023-03-01T09:37:57;4.40;75.50
10891;DHT22;5498;50.928;11.598;2023-03-01T09:41:00;4.70;75.60
10891;DHT22;5498;50.928;11.598;2023-03-01T09:44:07;4.90;74.20
10891;DHT22;5498;50.928;11.598;2023-03-01T09:47:17;5.00;73.40
10891;DHT22;5498;50.928;11.598;2023-03-01T09:50:21;5.00;72.00
10891;DHT22;5498;50.928;11.598;2023-03-01T09:53:30;4.80;71.50
10891;DHT22;5498;50.928;11.598;2023-03-01T09:56:38;5.00;71.40
10891;DHT22;5498;50.928;11.598;2023-03-01T09:59:50;5.20;70.70
10891;DHT22;5498;50.928;11.598;2023-03-01T10:03:06;5.30;69.50
10891;DHT22;5498;50.928;11.598;2023-03-01T10:06:15;5.00;69.40
10891;DHT22;5498;50.928;11.598;2023-03-01T10:09:22;4.90;69.60
10891;DHT22;5498;50.928;11.598;2023-03-01T10:12:27;4.50;69.00
10891;DHT22;5498;50.928;11.598;2023-03-01T10:15:38;3.90;68.90
10891;DHT22;5498;50.928;11.598;2023-03-01T10:18:47;4.00;71.50
10891;DHT22;5498;50.928;11.598;2023-03-01T10:21:58;4.10;70.00
10891;DHT22;5498;50.928;11.598;2023-03-01T10:25:06;4.20;70.40
10891;DHT22;5498;50.928;11.598;2023-03-01T10:28:16;4.10;70.20
10891;DHT22;5498;50.928;11.598;2023-03-01T10:31:20;4.40;70.50
10891;DHT22;5498;50.928;11.598;2023-03-01T10:34:29;4.50;69.30
10891;DHT22;5498;50.928;11.598;2023-03-01T10:37:32;4.40;68.80
10891;DHT22;5498;50.928;11.598;2023-03-01T10:40:49;4.70;68.70
10891;DHT22;5498;50.928;11.598;2023-03-01T10:43:53;4.90;68.70
10891;DHT22;5498;50.928;11.598;2023-03-01T10:47:00;5.10;67.20
10891;DHT22;5498;50.928;11.598;2023-03-01T10:50:04;4.70;67.10
10891;DHT22;5498;50.928;11.598;2023-03-01T10:53:24;4.80;68.20
10891;DHT22;5498;50.928;11.598;2023-03-01T10:56:46;4.80;67.50
10891;DHT22;5498;50.928;11.598;2023-03-01T11:00:01;5.10;67.60
10891;DHT22;5498;50.928;11.598;2023-03-01T11:03:14;4.80;66.50
10891;DHT22;5498;50.928;11.598;2023-03-01T11:06:22;5.20;67.20
10891;DHT22;5498;50.928;11.598;2023-03-01T11:09:25;5.00;65.80
10891;DHT22;5498;50.928;11.598;2023-03-01T11:12:29;5.10;66.60
10891;DHT22;5498;50.928;11.598;2023-03-01T11:15:33;5.30;66.10
10891;DHT22;5498;50.928;11.598;2023-03-01T11:18:35;5.60;65.50
10891;DHT22;5498;50.928;11.598;2023-03-01T11:21:38;5.40;64.80
10891;DHT22;5498;50.928;11.598;2023-03-01T11:24:45;5.70;65.10
10891;DHT22;5498;50.928;11.598;2023-03-01T11:27:49;5.60;64.00
10891;DHT22;5498;50.928;11.598;2023-03-01T11:30:54;5.60;64.30
10891;DHT22;5498;50.928;11.598;2023-03-01T11:34:01;5.50;65.60
10891;DHT22;5498;50.928;11.598;2023-03-01T11:37:20;5.70;65.70
10891;DHT22;5498;50.928;11.598;2023-03-01T11:40:27;5.90;65.70
10891;DHT22;5498;50.928;11.598;2023-03-01T11:43:38;5.60;65.20
10891;DHT22;5498;50.928;11.598;2023-03-01T11:47:11;5.50;66.10
10891;DHT22;5498;50.928;11.598;2023-03-01T11:50:26;5.40;66.60
10891;DHT22;5498;50.928;11.598;2023-03-01T11:53:51;5.30;66.60
10891;DHT22;5498;50.928;11.598;2023-03-01T11:57:15;5.20;67.70
10891;DHT22;5498;50.928;11.598;2023-03-01T12:04:54;4.30;70.40
10891;DHT22;5498;50.928;11.598;2023-03-01T12:08:08;4.70;70.50
10891;DHT22;5498;50.928;11.598;2023-03-01T12:11:26;4.90;70.20
10891;DHT22;5498;50.928;11.598;2023-03-01T12:14:41;4.80;69.40
10891;DHT22;5498;50.928;11.598;2023-03-01T12:18:21;5.00;69.30
10891;DHT22;5498;50.928;11.598;2023-03-01T12:21:51;5.10;68.90
10891;DHT22;5498;50.928;11.598;2023-03-01T12:25:18;5.10;68.50
10891;DHT22;5498;50.928;11.598;2023-03-01T12:28:38;5.10;68.00
10891;DHT22;5498;50.928;11.598;2023-03-01T12:32:25;4.70;68.10
10891;DHT22;5498;50.928;11.598;2023-03-01T12:36:06;5.00;69.10
10891;DHT22;5498;50.928;11.598;2023-03-01T12:39:36;4.80;68.50
10891;DHT22;5498;50.928;11.598;2023-03-01T12:42:56;4.70;69.30
10891;DHT22;5498;50.928;11.598;2023-03-01T12:46:25;4.40;69.70
10891;DHT22;5498;50.928;11.598;2023-03-01T12:49:35;4.60;70.40
10891;DHT22;5498;50.928;11.598;2023-03-01T12:52:44;4.90;69.80
10891;DHT22;5498;50.928;11.598;2023-03-01T12:55:49;5.20;69.60
10891;DHT22;5498;50.928;11.598;2023-03-01T12:59:00;5.00;69.30
10891;DHT22;5498;50.928;11.598;2023-03-01T13:02:10;4.90;69.60
10891;DHT22;5498;50.928;11.598;2023-03-01T13:05:26;5.10;69.60
10891;DHT22;5498;50.928;11.598;2023-03-01T13:08:41;5.00;69.30
10891;DHT22;5498;50.928;11.598;2023-03-01T13:11:45;4.90;69.30
10891;DHT22;5498;50.928;11.598;2023-03-01T13:14:47;4.80;68.50
10891;DHT22;5498;50.928;11.598;2023-03-01T13:17:50;4.90;68.10
10891;DHT22;5498;50.928;11.598;2023-03-01T13:20:54;4.80;68.20
10891;DHT22;5498;50.928;11.598;2023-03-01T13:23:59;4.50;68.70
10891;DHT22;5498;50.928;11.598;2023-03-01T13:27:18;4.50;68.40
10891;DHT22;5498;50.928;11.598;2023-03-01T13:30:41;4.50;67.80
10891;DHT22;5498;50.928;11.598;2023-03-01T13:33:45;4.70;67.60
10891;DHT22;5498;50.928;11.598;2023-03-01T13:36:48;4.70;67.30
10891;DHT22;5498;50.928;11.598;2023-03-01T13:39:52;4.70;68.30
10891;DHT22;5498;50.928;11.598;2023-03-01T13:42:55;4.50;66.10
10891;DHT22;5498;50.928;11.598;2023-03-01T13:45:58;4.60;66.70
10891;DHT22;5498;50.928;11.598;2023-03-01T13:49:00;4.80;66.80
10891;DHT22;5498;50.928;11.598;2023-03-01T13:52:02;4.90;67.20
10891;DHT22;5498;50.928;11.598;2023-03-01T13:55:16;4.80;66.00
10891;DHT22;5498;50.928;11.598;2023-03-01T13:58:22;4.60;66.20
10891;DHT22;5498;50.928;11.598;2023-03-01T14:01:28;4.80;67.10
10891;DHT22;5498;50.928;11.598;2023-03-01T14:04:32;4.80;67.60
10891;DHT22;5498;50.928;11.598;2023-03-01T14:07:36;4.90;66.60
10891;DHT22;5498;50.928;11.598;2023-03-01T14:10:54;4.80;66.20
10891;DHT22;5498;50.928;11.598;2023-03-01T14:14:12;4.60;66.70
10891;DHT22;5498;50.928;11.598;2023-03-01T14:17:44;4.80;66.60
10891;DHT22;5498;50.928;11.598;2023-03-01T14:20:51;5.00;65.90
10891;DHT22;5498;50.928;11.598;2023-03-01T14:23:53;5.10;65.00
10891;DHT22;5498;50.928;11.598;2023-03-01T14:26:56;4.80;65.10
10891;DHT22;5498;50.928;11.598;2023-03-01T14:30:00;4.90;65.40
10891;DHT22;5498;50.928;11.598;2023-03-01T14:33:04;5.10;65.10
10891;DHT22;5498;50.928;11.598;2023-03-01T14:36:25;4.70;63.80
10891;DHT22;5498;50.928;11.598;2023-03-01T14:39:28;4.40;62.70
10891;DHT22;5498;50.928;11.598;2023-03-01T14:42:35;4.60;62.80
10891;DHT22;5498;50.928;11.598;2023-03-01T14:45:37;4.30;64.20
10891;DHT22;5498;50.928;11.598;2023-03-01T14:48:39;4.40;64.20
10891;DHT22;5498;50.928;11.598;2023-03-01T14:51:43;4.50;63.70
10891;DHT22;5498;50.928;11.598;2023-03-01T14:54:52;4.50;64.30
10891;DHT22;5498;50.928;11.598;2023-03-01T14:57:56;4.50;64.10
10891;DHT22;5498;50.928;11.598;2023-03-01T15:01:02;4.80;64.20
10891;DHT22;5498;50.928;11.598;2023-03-01T15:04:05;4.70;64.20
10891;DHT22;5498;50.928;11.598;2023-03-01T15:07:11;4.70;64.20
10891;DHT22;5498;50.928;11.598;2023-03-01T15:10:19;4.60;64.60
10891;DHT22;5498;50.928;11.598;2023-03-01T15:13:25;4.50;66.20
10891;DHT22;5498;50.928;11.598;2023-03-01T15:16:29;4.70;66.60
10891;DHT22;5498;50.928;11.598;2023-03-01T15:19:32;4.70;67.30
10891;DHT22;5498;50.928;11.598;2023-03-01T15:22:35;4.80;66.80
10891;DHT22;5498;50.928;11.598;2023-03-01T15:25:37;5.00;66.10
10891;DHT22;5498;50.928;11.598;2023-03-01T15:28:48;5.00;65.60
10891;DHT22;5498;50.928;11.598;2023-03-01T15:31:55;4.70;66.20
10891;DHT22;5498;50.928;11.598;2023-03-01T15:34:58;4.70;66.50
10891;DHT22;5498;50.928;11.598;2023-03-01T15:38:01;4.80;66.00
10891;DHT22;5498;50.928;11.598;2023-03-01T15:41:05;4.60;66.30
10891;DHT22;5498;50.928;11.598;2023-03-01T15:44:29;4.40;67.00
10891;DHT22;5498;50.928;11.598;2023-03-01T15:47:32;4.30;67.80
10891;DHT22;5498;50.928;11.598;2023-03-01T15:50:36;4.10;66.80
10891;DHT22;5498;50.928;11.598;2023-03-01T15:53:40;4.40;66.60
10891;DHT22;5498;50.928;11.598;2023-03-01T15:56:42;4.30;65.50
10891;DHT22;5498;50.928;11.598;2023-03-01T15:59:46;4.00;64.80
10891;DHT22;5498;50.928;11.598;2023-03-01T16:02:48;3.90;66.00
10891;DHT22;5498;50.928;11.598;2023-03-01T16:05:50;3.90;66.40
10891;DHT22;5498;50.928;11.598;2023-03-01T16:08:52;3.90;66.80
10891;DHT22;5498;50.928;11.598;2023-03-01T16:11:54;4.10;66.10
10891;DHT22;5498;50.928;11.598;2023-03-01T16:14:57;4.00;65.20
10891;DHT22;5498;50.928;11.598;2023-03-01T16:17:59;3.90;64.90
10891;DHT22;5498;50.928;11.598;2023-03-01T16:21:01;3.90;64.90
10891;DHT22;5498;50.928;11.598;2023-03-01T16:24:03;3.90;64.60
10891;DHT22;5498;50.928;11.598;2023-03-01T16:27:06;4.10;65.00
10891;DHT22;5498;50.928;11.598;2023-03-01T16:30:11;4.10;64.00
10891;DHT22;5498;50.928;11.598;2023-03-01T16:33:13;3.90;64.40
10891;DHT22;5498;50.928;11.598;2023-03-01T16:36:17;4.00;64.60
10891;DHT22;5498;50.928;11.598;2023-03-01T16:39:20;3.90;64.10
10891;DHT22;5498;50.928;11.598;2023-03-01T16:42:22;3.90;64.00
10891;DHT22;5498;50.928;11.598;2023-03-01T16:45:25;3.80;64.10
10891;DHT22;5498;50.928;11.598;2023-03-01T16:48:27;3.80;64.50
10891;DHT22;5498;50.928;11.598;2023-03-01T16:51:29;3.80;64.60
10891;DHT22;5498;50.928;11.598;2023-03-01T16:54:32;4.00;65.00
10891;DHT22;5498;50.928;11.598;2023-03-01T16:57:35;4.10;64.70
10891;DHT22;5498;50.928;11.598;2023-03-01T17:00:39;4.00;64.80
10891;DHT22;5498;50.928;11.598;2023-03-01T17:03:41;3.90;65.20
10891;DHT22;5498;50.928;11.598;2023-03-01T17:06:43;4.10;66.00
10891;DHT22;5498;50.928;11.598;2023-03-01T17:09:47;4.10;65.90
10891;DHT22;5498;50.928;11.598;2023-03-01T17:12:49;4.10;65.90
10891;DHT22;5498;50.928;11.598;2023-03-01T17:15:52;3.90;66.20
10891;DHT22;5498;50.928;11.598;2023-03-01T17:18:54;3.90;67.10
10891;DHT22;5498;50.928;11.598;2023-03-01T17:21:56;3.90;67.50
10891;DHT22;5498;50.928;11.598;2023-03-01T17:24:58;3.90;67.60
10891;DHT22;5498;50.928;11.598;2023-03-01T17:28:00;4.00;67.50
10891;DHT22;5498;50.928;11.598;2023-03-01T17:31:05;4.00;67.60
10891;DHT22;5498;50.928;11.598;2023-03-01T17:34:08;4.10;67.60
10891;DHT22;5498;50.928;11.598;2023-03-01T17:37:10;4.00;67.10
10891;DHT22;5498;50.928;11.598;2023-03-01T17:40:12;3.80;67.30
10891;DHT22;5498;50.928;11.598;2023-03-01T17:43:15;3.80;68.50
10891;DHT22;5498;50.928;11.598;2023-03-01T17:46:19;3.50;69.40
10891;DHT22;5498;50.928;11.598;2023-03-01T17:49:21;3.40;69.30
10891;DHT22;5498;50.928;11.598;2023-03-01T17:52:23;3.20;70.30
10891;DHT22;5498;50.928;11.598;2023-03-01T17:55:25;3.20;71.00
10891;DHT22;5498;50.928;11.598;2023-03-01T17:58:26;3.30;70.80
10891;DHT22;5498;50.928;11.598;2023-03-01T18:01:30;3.30;70.90
10891;DHT22;5498;50.928;11.598;2023-03-01T18:04:32;3.10;71.80
10891;DHT22;5498;50.928;11.598;2023-03-01T18:07:34;2.70;72.30
10891;DHT22;5498;50.928;11.598;2023-03-01T18:10:36;2.50;74.00
10891;DHT22;5498;50.928;11.598;2023-03-01T18:13:38;2.50;73.80
10891;DHT22;5498;50.928;11.598;2023-03-01T18:16:42;2.50;74.10
10891;DHT22;5498;50.928;11.598;2023-03-01T18:19:43;2.70;74.30
10891;DHT22;5498;50.928;11.598;2023-03-01T18:22:45;2.70;74.30
10891;DHT22;5498;50.928;11.598;2023-03-01T18:25:48;2.80;74.10
10891;DHT22;5498;50.928;11.598;2023-03-01T18:28:51;2.90;73.80
10891;DHT22;5498;50.928;11.598;2023-03-01T18:31:54;2.90;73.90
10891;DHT22;5498;50.928;11.598;2023-03-01T18:34:56;2.80;73.60
10891;DHT22;5498;50.928;11.598;2023-03-01T18:37:58;2.80;74.40
10891;DHT22;5498;50.928;11.598;2023-03-01T18:41:00;2.80;74.50
10891;DHT22;5498;50.928;11.598;2023-03-01T18:44:03;2.80;74.30
10891;DHT22;5498;50.928;11.598;2023-03-01T18:47:06;2.80;74.80
10891;DHT22;5498;50.928;11.598;2023-03-01T18:50:09;2.80;74.60
10891;DHT22;5498;50.928;11.598;2023-03-01T18:53:11;2.80;75.00
10891;DHT22;5498;50.928;11.598;2023-03-01T18:56:14;2.70;74.60
10891;DHT22;5498;50.928;11.598;2023-03-01T18:59:16;2.40;75.40
10891;DHT22;5498;50.928;11.598;2023-03-01T19:02:19;2.10;76.50
10891;DHT22;5498;50.928;11.598;2023-03-01T19:05:21;2.20;77.20
10891;DHT22;5498;50.928;11.598;2023-03-01T19:08:23;2.10;77.30
10891;DHT22;5498;50.928;11.598;2023-03-01T19:11:25;2.20;76.80
10891;DHT22;5498;50.928;11.598;2023-03-01T19:14:29;2.20;76.60
10891;DHT22;5498;50.928;11.598;2023-03-01T19:17:33;2.30;76.70
10891;DHT22;5498;50.928;11.598;2023-03-01T19:20:35;2.30;77.20
10891;DHT22;5498;50.928;11.598;2023-03-01T19:23:38;2.30;77.50
10891;DHT22;5498;50.928;11.598;2023-03-01T19:26:40;2.30;77.50
10891;DHT22;5498;50.928;11.598;2023-03-01T19:29:42;2.30;78.00
10891;DHT22;5498;50.928;11.598;2023-03-01T19:32:45;2.30;78.00
10891;DHT22;5498;50.928;11.598;2023-03-01T19:35:47;2.20;78.20
10891;DHT22;5498;50.928;11.598;2023-03-01T19:38:50;2.20;78.50
10891;DHT22;5498;50.928;11.598;2023-03-01T19:41:52;2.20;78.20
10891;DHT22;5498;50.928;11.598;2023-03-01T19:44:54;2.20;78.30
10891;DHT22;5498;50.928;11.598;2023-03-01T19:47:57;2.10;79.80